Time;durP1;ratioP1;P1;durP2;ratioP2;P2;SDS_P1;SDS_P2;PMS_P1;PMS_P2;Temp;Humidity;BMP_temperature;BMP_pressure;BME280_temperature;BME280_humidity;BME280_pressure;Samples;Min_cycle;Max_cycle;Signal;HPM_P1;HPM_P2
2024/01/01 00:01:03;;;;;;;3.80;1.47;;;;;;;18.43;58.04;99536.97;4904712;28;20210;-69
2024/01/01 00:03:28;;;;;;;2.97;1.33;;;;;;;18.45;57.76;99539.41;4956131;28;20253;-69
2024/01/01 00:05:54;;;;;;;2.10;1.20;;;;;;;18.44;58.12;99547.19;4933843;29;21271;-70
2024/01/01 00:08:19;;;;;;;5.10;1.60;;;;;;;18.44;57.73;99544.31;4902423;29;20251;-70
2024/01/01 00:10:47;;;;;;;2.23;1.20;;;;;;;18.45;58.00;99543.09;4903339;29;20203;-70
2024/01/01 00:13:12;;;;;;;3.67;1.50;;;;;;;18.47;57.82;99548.44;4925608;28;20214;-71
2024/01/01 00:15:38;;;;;;;2.27;1.30;;;;;;;18.44;58.17;99552.06;4918224;29;20495;-69
2024/01/01 00:18:03;;;;;;;2.07;1.20;;;;;;;18.43;57.89;99550.44;4937431;28;20265;-70
2024/01/01 00:20:29;;;;;;;2.70;1.40;;;;;;;18.47;57.75;99562.72;4936376;28;20213;-69
2024/01/01 00:22:54;;;;;;;2.63;1.20;;;;;;;18.44;58.08;99552.06;4948024;28;20199;-69
2024/01/01 00:25:20;;;;;;;3.33;1.30;;;;;;;18.43;57.66;99545.56;4913525;29;20214;-69
2024/01/01 00:27:45;;;;;;;4.20;1.37;;;;;;;18.43;57.71;99545.56;4904507;28;20563;-70
2024/01/01 00:30:11;;;;;;;4.53;1.50;;;;;;;18.44;57.56;99546.34;4935638;29;20686;-69
2024/01/01 00:32:36;;;;;;;2.73;1.50;;;;;;;18.45;57.83;99543.09;4896011;29;20528;-69
2024/01/01 00:35:02;;;;;;;2.27;1.30;;;;;;;18.44;58.03;99541.47;4915594;29;20214;-72
2024/01/01 00:37:27;;;;;;;3.07;1.43;;;;;;;18.45;58.39;99543.09;4936282;29;20199;-69
2024/01/01 00:39:54;;;;;;;3.37;1.50;;;;;;;18.43;57.90;99551.28;4920942;29;20233;-70
2024/01/01 00:42:20;;;;;;;2.77;1.23;;;;;;;18.42;57.92;99548.81;4935796;28;20702;-70
2024/01/01 00:44:45;;;;;;;2.37;1.17;;;;;;;18.41;58.07;99547.97;4932887;28;20454;-71
2024/01/01 00:47:11;;;;;;;3.00;1.57;;;;;;;18.40;57.81;99546.34;4915600;29;20234;-71
2024/01/01 00:49:36;;;;;;;2.33;1.17;;;;;;;18.41;57.60;99547.16;4917530;29;20232;-69
2024/01/01 00:52:02;;;;;;;4.03;1.67;;;;;;;18.40;57.97;99545.50;4935634;29;20219;-70
2024/01/01 00:54:28;;;;;;;2.03;1.07;;;;;;;18.43;58.03;99548.41;4935501;29;20214;-70
2024/01/01 00:56:54;;;;;;;2.63;1.40;;;;;;;18.40;58.23;99549.19;4919424;28;20207;-69
2024/01/01 00:59:23;;;;;;;3.40;1.20;;;;;;;18.42;58.16;99541.03;4913704;29;20218;-70
2024/01/01 01:01:49;;;;;;;3.07;1.20;;;;;;;18.40;57.39;99537.75;4903195;29;20451;-70
2024/01/01 01:04:14;;;;;;;2.07;1.30;;;;;;;18.40;58.12;99549.19;4934775;29;20454;-69
2024/01/01 01:06:40;;;;;;;2.70;1.37;;;;;;;18.41;57.83;99542.25;4931648;29;20462;-70
2024/01/01 01:09:05;;;;;;;2.73;1.37;;;;;;;18.42;57.76;99545.94;4917345;29;20203;-69
2024/01/01 01:11:31;;;;;;;2.80;1.60;;;;;;;18.39;57.90;99541.84;4949004;28;20203;-69
2024/01/01 01:13:56;;;;;;;2.90;1.90;;;;;;;18.41;58.02;99542.25;4918814;29;20280;-69
2024/01/01 01:16:23;;;;;;;3.20;1.50;;;;;;;18.39;57.90;99544.69;4917007;29;20214;-69
2024/01/01 01:18:48;;;;;;;3.13;1.60;;;;;;;18.41;57.82;99545.13;4936242;29;20201;-70
2024/01/01 01:21:14;;;;;;;2.33;1.10;;;;;;;18.39;57.75;99544.69;4921650;29;20480;-70
2024/01/01 01:23:39;;;;;;;1.87;1.17;;;;;;;18.38;57.99;99543.06;4931597;28;20574;-69
2024/01/01 01:26:05;;;;;;;3.93;1.60;;;;;;;18.39;57.98;99561.84;4926461;29;20226;-70
2024/01/01 01:28:30;;;;;;;2.33;1.23;;;;;;;18.37;57.70;99569.19;4950182;28;20199;-70
2024/01/01 01:30:56;;;;;;;2.27;1.43;;;;;;;18.38;58.13;99563.06;4932155;28;20546;-70
2024/01/01 01:33:21;;;;;;;3.40;1.20;;;;;;;18.39;58.09;99561.84;4901101;29;20251;-70
2024/01/01 01:35:47;;;;;;;5.23;1.47;;;;;;;18.38;57.99;99565.09;4924513;29;20211;-70
2024/01/01 01:38:12;;;;;;;2.90;1.30;;;;;;;18.36;57.97;99571.22;4916265;29;20222;-71
2024/01/01 01:40:38;;;;;;;2.27;1.27;;;;;;;18.35;57.77;99574.47;4951738;28;20215;-69
2024/01/01 01:43:03;;;;;;;3.53;1.33;;;;;;;18.38;57.88;99585.94;4936996;28;20210;-70
2024/01/01 01:45:29;;;;;;;2.60;1.20;;;;;;;18.37;57.95;99581.41;4922202;28;20206;-70
2024/01/01 01:47:54;;;;;;;2.60;1.23;;;;;;;18.39;57.60;99576.13;4916029;29;20198;-72
2024/01/01 01:50:20;;;;;;;3.50;1.90;;;;;;;18.36;58.24;99574.06;4935317;29;20207;-69
2024/01/01 01:52:45;;;;;;;2.97;1.70;;;;;;;18.38;57.67;99583.06;4917301;29;20270;-71
2024/01/01 01:55:11;;;;;;;4.50;1.40;;;;;;;18.38;58.12;99585.94;4916350;29;20217;-70
2024/01/01 01:57:37;;;;;;;3.20;1.43;;;;;;;18.39;57.10;99589.59;4931866;29;20208;-69
2024/01/01 02:00:37;;;;;;;2.80;1.60;;;;;;;18.40;57.70;99592.06;4942407;28;20826;-71
2024/01/01 02:03:04;;;;;;;2.67;1.30;;;;;;;18.36;57.79;99584.69;4964598;28;20439;-73
2024/01/01 02:05:29;;;;;;;2.30;1.30;;;;;;;18.35;58.07;99589.56;4954807;28;20455;-73
2024/01/01 02:07:55;;;;;;;3.20;1.60;;;;;;;18.40;57.83;99580.63;4958096;28;20970;-73
2024/01/01 02:10:20;;;;;;;3.73;1.40;;;;;;;18.37;58.03;99592.84;4957058;28;20206;-73
2024/01/01 02:12:46;;;;;;;4.27;1.83;;;;;;;18.33;58.21;99586.31;4920830;29;20286;-73
2024/01/01 02:15:11;;;;;;;3.17;1.50;;;;;;;18.36;57.85;99596.13;4935164;29;20211;-73
2024/01/01 02:17:36;;;;;;;1.77;1.13;;;;;;;18.34;58.17;99590.81;4903713;29;20199;-73
2024/01/01 02:20:03;;;;;;;2.70;1.40;;;;;;;18.34;57.74;99582.22;4903413;29;20214;-73
2024/01/01 02:22:39;;;;;;;2.73;1.20;;;;;;;18.33;58.09;99586.31;4910745;29;20199;-73
2024/01/01 02:25:05;;;;;;;3.33;1.73;;;;;;;18.32;58.00;99587.50;4937482;28;21293;-73
2024/01/01 02:27:30;;;;;;;2.00;1.27;;;;;;;18.31;57.88;99576.47;4919122;29;20525;-74
2024/01/01 02:29:56;;;;;;;2.60;1.70;;;;;;;18.31;58.10;99582.19;4934976;29;20955;-73
2024/01/01 02:32:21;;;;;;;2.63;1.40;;;;;;;18.33;58.28;99574.88;4916919;28;20270;-73
2024/01/01 02:34:50;;;;;;;2.90;1.60;;;;;;;18.34;57.87;99579.38;4923681;29;20214;-73
2024/01/01 02:37:15;;;;;;;2.70;1.50;;;;;;;18.32;58.27;99580.94;4950009;28;20215;-73
2024/01/01 02:39:40;;;;;;;4.13;1.67;;;;;;;18.29;58.29;99574.00;4918320;29;20451;-73
2024/01/01 02:42:06;;;;;;;4.07;1.50;;;;;;;18.32;58.06;99584.66;4934166;29;20263;-73
2024/01/01 02:44:31;;;;;;;3.30;1.10;;;;;;;18.30;58.02;99578.47;4933213;29;20699;-73
2024/01/01 02:46:57;;;;;;;2.23;1.20;;;;;;;18.32;57.97;99589.53;4937829;29;20203;-73
2024/01/01 02:49:22;;;;;;;2.93;1.07;;;;;;;18.31;58.22;99590.75;4906728;29;20244;-73
2024/01/01 02:51:48;;;;;;;3.57;1.63;;;;;;;18.29;57.73;99596.03;4902097;29;20583;-73
2024/01/01 02:54:14;;;;;;;3.40;1.30;;;;;;;18.32;58.38;99606.66;4905342;29;20981;-73
2024/01/01 02:56:40;;;;;;;2.30;1.20;;;;;;;18.29;58.12;99602.56;4900951;29;20211;-73
2024/01/01 02:59:05;;;;;;;3.87;1.40;;;;;;;18.27;58.29;99587.84;4930308;29;20475;-73
2024/01/01 03:01:31;;;;;;;2.63;1.30;;;;;;;18.30;58.06;99609.09;4884852;29;20208;-73
2024/01/01 03:03:56;;;;;;;3.33;1.63;;;;;;;18.28;58.42;99602.97;4899743;29;20200;-73
2024/01/01 03:06:22;;;;;;;2.53;1.50;;;;;;;18.27;58.30;99616.41;4916720;29;20257;-73
2024/01/01 03:08:47;;;;;;;2.53;1.40;;;;;;;18.29;57.74;99611.13;4905647;29;20203;-73
2024/01/01 03:11:12;;;;;;;1.90;1.10;;;;;;;18.28;58.26;99615.22;4904745;29;20273;-73
2024/01/01 03:13:39;;;;;;;3.97;1.43;;;;;;;18.26;57.84;99611.91;4914997;29;20208;-73
2024/01/01 03:16:04;;;;;;;2.33;1.50;;;;;;;18.26;58.17;99614.78;4905621;29;20408;-73
2024/01/01 03:18:30;;;;;;;2.53;1.40;;;;;;;18.29;58.01;99618.88;4937540;29;20450;-73
2024/01/01 03:20:55;;;;;;;2.40;1.40;;;;;;;18.26;58.04;99622.53;4922038;29;20219;-73
2024/01/01 03:23:21;;;;;;;3.40;1.20;;;;;;;18.24;58.61;99614.38;4918930;29;20210;-73
2024/01/01 03:25:46;;;;;;;2.00;1.27;;;;;;;18.23;58.49;99618.44;4930567;29;20203;-74
2024/01/01 03:28:12;;;;;;;2.73;1.37;;;;;;;18.23;58.39;99606.19;4933390;29;20652;-73
2024/01/01 03:30:37;;;;;;;2.80;1.40;;;;;;;18.25;58.27;99595.16;4917400;29;20203;-73
2024/01/01 03:33:03;;;;;;;3.63;1.23;;;;;;;18.24;58.31;99596.38;4914239;29;20208;-73
2024/01/01 03:35:31;;;;;;;2.43;1.10;;;;;;;18.22;58.29;99598.84;4900885;29;20274;-73
2024/01/01 03:37:59;;;;;;;3.10;1.53;;;;;;;18.24;58.44;99600.06;4916593;29;20203;-73
2024/01/01 03:40:25;;;;;;;2.93;1.60;;;;;;;18.24;58.29;99594.38;4917612;29;20559;-73
2024/01/01 03:42:50;;;;;;;2.63;1.47;;;;;;;18.22;58.34;99598.84;4916386;29;20447;-73
2024/01/01 03:45:16;;;;;;;2.80;1.43;;;;;;;18.26;58.15;99597.63;4915389;29;20247;-73
2024/01/01 03:47:42;;;;;;;2.80;1.30;;;;;;;18.24;58.25;99602.94;4899193;29;20204;-73
2024/01/01 03:50:07;;;;;;;3.50;1.70;;;;;;;18.22;58.63;99607.41;4917552;29;20507;-73
2024/01/01 03:52:33;;;;;;;2.80;1.50;;;;;;;18.22;58.11;99613.13;4923299;29;20199;-73
2024/01/01 03:54:59;;;;;;;2.73;1.43;;;;;;;18.22;58.34;99611.06;4912683;29;20215;-73
2024/01/01 03:57:24;;;;;;;2.70;1.10;;;;;;;18.24;58.47;99593.53;4917594;29;20202;-73
2024/01/01 03:59:50;;;;;;;1.90;1.10;;;;;;;18.22;58.25;99596.78;4918350;29;20282;-73
2024/01/01 04:02:15;;;;;;;2.13;1.27;;;;;;;18.21;58.05;99592.28;4917997;29;20207;-73
2024/01/01 04:04:44;;;;;;;2.10;1.17;;;;;;;18.22;58.30;99590.25;4918818;29;20195;-73
2024/01/01 04:07:12;;;;;;;3.40;1.50;;;;;;;18.20;58.08;99590.66;4918200;29;20316;-73
2024/01/01 04:09:37;;;;;;;2.47;1.47;;;;;;;18.20;58.23;99590.66;4936230;29;20782;-74
2024/01/01 04:12:03;;;;;;;2.30;1.23;;;;;;;18.20;58.07;99592.69;4883520;29;20455;-73
2024/01/01 04:14:28;;;;;;;2.27;1.33;;;;;;;18.23;58.37;99592.72;4904151;29;20226;-73
2024/01/01 04:16:54;;;;;;;3.97;1.50;;;;;;;18.21;58.34;99600.06;4920946;29;20200;-73
2024/01/01 04:19:21;;;;;;;3.53;1.43;;;;;;;18.21;58.27;99602.91;4920892;29;20204;-73
2024/01/01 04:21:47;;;;;;;2.73;1.23;;;;;;;18.21;58.08;99617.19;4904768;29;20210;-73
2024/01/01 04:24:12;;;;;;;2.03;1.13;;;;;;;18.21;58.30;99609.44;4916165;29;20571;-73
2024/01/01 04:26:38;;;;;;;2.50;1.43;;;;;;;18.20;58.13;99622.06;4914703;29;20244;-73
2024/01/01 04:29:03;;;;;;;2.73;1.23;;;;;;;18.21;58.64;99611.47;4920253;29;20207;-73
2024/01/01 04:31:29;;;;;;;2.10;1.37;;;;;;;18.21;58.13;99614.34;4903452;29;20199;-73
2024/01/01 04:33:54;;;;;;;2.23;1.27;;;;;;;18.22;58.02;99615.97;4918719;29;20195;-73
2024/01/01 04:36:21;;;;;;;2.83;1.43;;;;;;;18.18;58.07;99618.81;4928454;29;20210;-73
2024/01/01 04:38:46;;;;;;;2.37;1.40;;;;;;;18.19;58.48;99614.72;4902173;29;20229;-73
2024/01/01 04:41:12;;;;;;;3.00;1.23;;;;;;;18.20;57.72;99616.38;4919819;29;20460;-73
2024/01/01 04:43:39;;;;;;;2.53;1.20;;;;;;;18.19;58.41;99614.72;4901185;29;20197;-71
2024/01/01 04:46:04;;;;;;;1.97;1.10;;;;;;;18.23;57.80;99624.16;4920005;29;20636;-72
2024/01/01 04:48:30;;;;;;;2.23;1.30;;;;;;;18.20;58.21;99619.22;4922202;29;20503;-72
2024/01/01 04:50:55;;;;;;;2.90;1.30;;;;;;;18.18;58.05;99618.81;4889078;29;20207;-73
2024/01/01 04:53:21;;;;;;;2.53;1.30;;;;;;;18.21;57.97;99629.44;4914310;28;20202;-73
2024/01/01 04:55:46;;;;;;;2.70;1.30;;;;;;;18.22;58.49;99625.34;4927947;29;20215;-72
2024/01/01 04:58:12;;;;;;;2.40;1.30;;;;;;;18.21;57.99;99640.06;4903459;29;20271;-73
2024/01/01 05:00:37;;;;;;;4.03;1.60;;;;;;;18.20;57.95;99630.66;4934350;29;20603;-73
2024/01/01 05:03:03;;;;;;;2.43;1.13;;;;;;;18.22;58.01;99636.78;4922340;28;20237;-72
2024/01/01 05:05:29;;;;;;;2.70;1.40;;;;;;;18.21;58.22;99640.84;4951170;28;20210;-73
2024/01/01 05:07:54;;;;;;;2.20;1.10;;;;;;;18.18;58.21;99652.25;4922991;29;20231;-72
2024/01/01 05:10:19;;;;;;;2.40;1.60;;;;;;;18.20;58.05;99649.81;4921857;29;20246;-73
2024/01/01 05:12:45;;;;;;;2.53;1.30;;;;;;;18.19;58.04;99649.00;4920812;29;20203;-72
2024/01/01 05:15:13;;;;;;;2.17;1.10;;;;;;;18.21;58.29;99649.44;4932294;29;20654;-72
2024/01/01 05:17:39;;;;;;;2.53;1.30;;;;;;;18.21;58.06;99642.91;4934924;29;20207;-72
2024/01/01 05:20:05;;;;;;;1.97;1.10;;;;;;;18.22;57.94;99653.91;4943608;28;20482;-72
2024/01/01 05:22:31;;;;;;;2.90;1.43;;;;;;;18.21;57.90;99640.06;4934438;29;20289;-72
2024/01/01 05:24:56;;;;;;;2.17;1.20;;;;;;;18.19;58.34;99643.31;4948711;28;20458;-69
2024/01/01 05:27:22;;;;;;;2.63;1.30;;;;;;;18.19;58.28;99634.72;4900058;29;20215;-69
2024/01/01 05:29:47;;;;;;;2.63;1.20;;;;;;;18.18;57.89;99641.66;4900471;29;20229;-69
2024/01/01 05:32:13;;;;;;;2.60;1.20;;;;;;;18.18;58.05;99641.66;4916258;28;20242;-70
2024/01/01 05:34:40;;;;;;;2.20;1.40;;;;;;;18.20;58.23;99649.81;4966472;28;20214;-69
2024/01/01 05:37:05;;;;;;;2.60;1.23;;;;;;;18.22;57.80;99645.34;4938073;28;20209;-70
2024/01/01 05:39:31;;;;;;;2.10;1.10;;;;;;;18.20;58.06;99646.97;4951321;28;20445;-70
2024/01/01 05:41:56;;;;;;;2.80;1.33;;;;;;;18.21;57.97;99646.56;4916336;28;20258;-70
2024/01/01 05:44:22;;;;;;;2.20;1.20;;;;;;;18.24;58.13;99645.78;4919078;29;20203;-69
2024/01/01 05:46:47;;;;;;;2.67;1.50;;;;;;;18.18;58.20;99658.81;4934703;29;20210;-69
2024/01/01 05:49:13;;;;;;;2.50;1.37;;;;;;;18.20;58.08;99662.06;4950203;28;20238;-70
2024/01/01 05:51:38;;;;;;;1.93;1.00;;;;;;;18.21;58.15;99669.44;4934584;29;20206;-69
2024/01/01 05:54:03;;;;;;;2.47;1.37;;;;;;;18.19;58.03;99663.28;4935347;29;20205;-69
2024/01/01 05:56:29;;;;;;;2.27;1.30;;;;;;;18.21;58.14;99669.44;4933550;29;20218;-69
2024/01/01 05:58:54;;;;;;;2.03;0.97;;;;;;;18.21;58.03;99668.63;4937290;28;20207;-71
2024/01/01 06:01:20;;;;;;;2.93;1.10;;;;;;;18.20;58.33;99670.66;4927204;28;20262;-68
2024/01/01 06:03:46;;;;;;;1.90;1.10;;;;;;;18.21;58.04;99671.47;4954234;28;20213;-70
2024/01/01 06:06:12;;;;;;;2.10;1.20;;;;;;;18.20;57.96;99664.94;4922018;28;20202;-69
2024/01/01 06:08:37;;;;;;;1.93;1.10;;;;;;;18.21;58.17;99671.47;4953905;28;20241;-69
2024/01/01 06:11:03;;;;;;;2.27;1.00;;;;;;;18.21;58.27;99678.00;4913377;29;20652;-68
2024/01/01 06:13:28;;;;;;;2.20;1.20;;;;;;;18.19;57.98;99671.88;4909014;29;20238;-69
2024/01/01 06:15:54;;;;;;;2.23;1.20;;;;;;;18.23;58.03;99675.59;4929968;29;20215;-71
2024/01/01 06:18:19;;;;;;;2.60;1.60;;;;;;;18.23;57.66;99678.44;4951296;28;20198;-70
2024/01/01 06:20:45;;;;;;;2.63;1.13;;;;;;;18.24;57.71;99680.06;4933355;29;20206;-69
2024/01/01 06:23:11;;;;;;;2.73;1.23;;;;;;;18.20;57.97;99675.53;4933851;29;20211;-71
2024/01/01 06:25:36;;;;;;;2.50;1.23;;;;;;;18.20;58.02;99682.06;4945870;28;20207;-69
2024/01/01 06:28:02;;;;;;;2.23;1.30;;;;;;;18.20;58.13;99684.94;4932968;29;20702;-69
2024/01/01 06:30:27;;;;;;;2.10;1.10;;;;;;;18.20;58.03;99682.06;4928931;29;20215;-70
2024/01/01 06:32:52;;;;;;;2.20;1.10;;;;;;;18.23;57.74;99695.59;4914658;29;20218;-71
2024/01/01 06:35:18;;;;;;;2.57;1.00;;;;;;;18.21;58.04;99689.44;4918188;29;20235;-73
2024/01/01 06:37:43;;;;;;;1.97;1.13;;;;;;;18.22;57.69;99691.06;4920489;29;20754;-73
2024/01/01 06:40:09;;;;;;;2.43;1.20;;;;;;;18.22;58.01;99693.91;4920802;28;20217;-73
2024/01/01 06:42:34;;;;;;;2.47;1.40;;;;;;;18.24;58.15;99691.50;4936925;29;20223;-73
2024/01/01 06:45:00;;;;;;;3.07;1.20;;;;;;;18.23;57.73;99700.47;4922096;28;20212;-73
2024/01/01 06:47:25;;;;;;;3.70;1.43;;;;;;;18.23;58.06;99706.19;4903603;29;20204;-73
2024/01/01 06:49:52;;;;;;;2.70;1.43;;;;;;;18.24;57.91;99704.97;4903127;29;20242;-73
2024/01/01 06:52:18;;;;;;;2.17;1.20;;;;;;;18.26;57.87;99711.13;4957849;29;20510;-73
2024/01/01 06:54:43;;;;;;;3.13;1.73;;;;;;;18.23;57.95;99714.75;4939753;29;20474;-73
2024/01/01 06:57:09;;;;;;;1.70;1.00;;;;;;;18.25;58.02;99720.88;4941203;28;20233;-73
2024/01/01 06:59:36;;;;;;;2.93;1.50;;;;;;;18.23;57.74;99723.31;4944628;28;20206;-73
2024/01/01 07:02:01;;;;;;;2.03;1.10;;;;;;;18.24;57.92;99720.09;4941876;29;20199;-73
2024/01/01 07:04:27;;;;;;;2.43;1.30;;;;;;;18.23;57.84;99729.03;4941911;29;20450;-73
2024/01/01 07:06:52;;;;;;;2.17;1.07;;;;;;;18.24;58.01;99730.69;4949788;29;20206;-73
2024/01/01 07:09:18;;;;;;;3.27;1.10;;;;;;;18.24;57.85;99742.09;4955324;28;20213;-73
2024/01/01 07:11:44;;;;;;;1.83;0.97;;;;;;;18.22;57.91;99739.63;4943342;28;20207;-73
2024/01/01 07:14:09;;;;;;;2.30;1.17;;;;;;;18.23;57.90;99747.00;4934849;28;20706;-72
2024/01/01 07:16:35;;;;;;;1.60;0.90;;;;;;;18.22;58.09;99753.91;4939339;29;20443;-73
2024/01/01 07:19:00;;;;;;;2.33;1.10;;;;;;;18.23;57.69;99754.75;4953511;29;20672;-72
2024/01/01 07:21:26;;;;;;;2.10;1.07;;;;;;;18.25;58.15;99756.00;4954876;29;20235;-73
2024/01/01 07:23:52;;;;;;;2.17;1.33;;;;;;;18.29;57.54;99764.59;4923275;29;20206;-73
2024/01/01 07:26:17;;;;;;;2.53;1.33;;;;;;;18.25;57.86;99764.56;4935007;29;20259;-73
2024/01/01 07:28:43;;;;;;;2.37;1.37;;;;;;;18.24;57.77;99768.66;4940313;29;20214;-73
2024/01/01 07:31:10;;;;;;;2.40;1.33;;;;;;;18.24;58.04;99768.66;4936453;29;20270;-73
2024/01/01 07:33:35;;;;;;;3.27;1.30;;;;;;;18.23;57.53;99769.88;4908975;28;20569;-73
2024/01/01 07:36:01;;;;;;;2.53;1.10;;;;;;;18.27;58.13;99773.56;4923861;29;20474;-73
2024/01/01 07:38:26;;;;;;;2.43;1.00;;;;;;;18.24;57.96;99782.09;4938658;29;20210;-73
2024/01/01 07:40:52;;;;;;;2.17;0.90;;;;;;;18.24;58.09;99782.09;4922999;29;20204;-73
2024/01/01 07:43:17;;;;;;;2.87;1.40;;;;;;;18.25;57.81;99786.59;4920699;29;20200;-73
2024/01/01 07:45:43;;;;;;;2.53;1.00;;;;;;;18.23;57.83;99789.88;4920534;29;20203;-73
2024/01/01 07:48:09;;;;;;;2.07;1.17;;;;;;;18.26;57.84;99793.97;4938787;29;20211;-73
2024/01/01 07:50:35;;;;;;;2.00;1.17;;;;;;;18.26;57.90;99796.84;4955014;29;20190;-72
2024/01/01 07:53:01;;;;;;;2.57;1.10;;;;;;;18.25;58.17;99796.00;4929657;28;20468;-72
2024/01/01 07:55:27;;;;;;;2.87;1.20;;;;;;;18.24;57.80;99790.69;4946353;29;20626;-73
2024/01/01 07:57:53;;;;;;;2.00;1.03;;;;;;;18.25;58.15;99786.59;4943262;28;20203;-72
2024/01/01 08:00:19;;;;;;;2.20;1.00;;;;;;;18.26;58.02;99789.06;4938827;28;20534;-73
2024/01/01 08:02:44;;;;;;;3.57;1.83;;;;;;;18.24;58.22;99794.38;4909556;28;20655;-72
2024/01/01 08:05:10;;;;;;;2.13;1.23;;;;;;;18.27;57.74;99787.84;4932110;28;20493;-73
2024/01/01 08:07:35;;;;;;;2.17;1.00;;;;;;;18.28;57.55;99785.81;4958510;28;20201;-73
2024/01/01 08:10:01;;;;;;;2.67;1.00;;;;;;;18.28;57.95;99794.41;4920187;29;20213;-73
2024/01/01 08:12:27;;;;;;;4.40;1.10;;;;;;;18.26;57.74;99794.78;4906330;29;20290;-73
2024/01/01 08:14:53;;;;;;;1.80;0.87;;;;;;;18.27;57.78;99795.63;4916876;29;20223;-73
2024/01/01 08:17:18;;;;;;;2.70;1.00;;;;;;;18.26;58.08;99800.50;4940050;28;20206;-73
2024/01/01 08:19:44;;;;;;;1.90;1.00;;;;;;;18.27;57.98;99787.84;4933754;29;21010;-72
2024/01/01 08:22:09;;;;;;;4.27;1.63;;;;;;;18.29;57.64;99796.88;4935563;29;20216;-73
2024/01/01 08:24:35;;;;;;;1.80;1.00;;;;;;;18.29;57.63;99801.75;4922360;29;20204;-73
2024/01/01 08:27:01;;;;;;;1.70;0.97;;;;;;;18.27;57.85;99796.41;4908998;29;20699;-73
2024/01/01 08:29:26;;;;;;;2.40;1.10;;;;;;;18.26;57.55;99803.34;4913514;29;20637;-73
2024/01/01 08:31:52;;;;;;;2.67;1.20;;;;;;;18.30;57.75;99800.53;4912394;29;20210;-72
2024/01/01 08:34:17;;;;;;;2.20;1.20;;;;;;;18.29;57.79;99796.88;4911018;29;20593;-72
2024/01/01 08:36:42;;;;;;;3.83;1.10;;;;;;;18.29;57.83;99802.59;4940333;29;20619;-72
2024/01/01 08:39:09;;;;;;;2.47;0.93;;;;;;;18.28;57.81;99809.53;4939419;29;20214;-72
2024/01/01 08:41:42;;;;;;;2.20;1.00;;;;;;;18.29;57.54;99802.59;4955439;28;20235;-72
2024/01/01 08:44:07;;;;;;;2.90;1.10;;;;;;;18.30;57.64;99812.78;4954096;28;20466;-72
2024/01/01 08:46:33;;;;;;;2.70;1.30;;;;;;;18.28;57.87;99817.25;4915570;29;20980;-72
2024/01/01 08:48:58;;;;;;;3.77;1.30;;;;;;;18.29;57.67;99827.47;4919685;29;20243;-72
2024/01/01 08:51:24;;;;;;;2.60;1.00;;;;;;;18.29;58.00;99828.31;4904003;28;20198;-72
2024/01/01 08:53:49;;;;;;;4.23;1.33;;;;;;;18.28;58.06;99825.84;4921296;29;20280;-72
2024/01/01 08:56:14;;;;;;;2.40;1.00;;;;;;;18.30;57.92;99824.22;4939300;28;20226;-72
2024/01/01 08:58:40;;;;;;;1.67;0.90;;;;;;;18.30;57.64;99834.81;4928730;29;20207;-72
2024/01/01 09:01:06;;;;;;;3.00;1.30;;;;;;;18.32;57.81;99830.41;4934593;29;20678;-72
2024/01/01 09:03:31;;;;;;;2.30;1.20;;;;;;;18.29;57.72;99842.59;4923292;29;20209;-72
2024/01/01 09:05:58;;;;;;;2.00;1.10;;;;;;;18.30;58.06;99832.81;4949164;28;20205;-72
2024/01/01 09:08:25;;;;;;;2.67;1.30;;;;;;;18.32;57.78;99841.00;4952709;28;20586;-72
2024/01/01 09:10:51;;;;;;;2.00;1.07;;;;;;;18.31;57.85;99839.34;4938583;28;20457;-72
2024/01/01 09:13:16;;;;;;;3.40;1.37;;;;;;;18.33;57.88;99845.53;4925273;29;20467;-72
2024/01/01 09:15:42;;;;;;;2.30;1.17;;;;;;;18.33;57.79;99846.34;4908406;29;20218;-72
2024/01/01 09:18:07;;;;;;;2.73;1.10;;;;;;;18.36;57.51;99851.25;4937915;29;20207;-72
2024/01/01 09:20:33;;;;;;;1.77;1.00;;;;;;;18.34;57.79;99850.84;4920850;29;20211;-72
2024/01/01 09:22:59;;;;;;;1.90;1.00;;;;;;;18.33;57.95;99854.09;4918826;29;20203;-72
2024/01/01 09:25:24;;;;;;;2.30;1.23;;;;;;;18.33;57.50;99859.81;4923411;29;20471;-72
2024/01/01 09:27:50;;;;;;;1.80;0.97;;;;;;;18.31;57.51;99848.72;4907099;29;20211;-72
2024/01/01 09:30:16;;;;;;;2.33;1.20;;;;;;;18.33;57.66;99863.50;4903382;29;20207;-72
2024/01/01 09:32:41;;;;;;;3.50;1.33;;;;;;;18.33;57.86;99856.94;4934636;29;20301;-72
2024/01/01 09:35:08;;;;;;;3.53;1.07;;;;;;;18.34;57.76;99862.28;4937779;29;20835;-72
2024/01/01 09:37:34;;;;;;;1.80;1.00;;;;;;;18.35;57.79;99869.63;4938449;29;20597;-72
2024/01/01 09:39:59;;;;;;;2.53;1.20;;;;;;;18.33;57.56;99860.63;4940983;28;20466;-72
2024/01/01 09:42:25;;;;;;;4.03;0.93;;;;;;;18.37;57.97;99861.47;4940823;29;20219;-72
2024/01/01 09:44:52;;;;;;;2.60;1.10;;;;;;;18.38;57.42;99862.31;4903546;29;20199;-72
2024/01/01 09:47:18;;;;;;;4.20;1.17;;;;;;;18.37;57.61;99861.47;4921345;29;20254;-72
2024/01/01 09:49:43;;;;;;;2.43;1.20;;;;;;;18.37;57.54;99858.63;4921613;29;20852;-72
2024/01/01 09:52:14;;;;;;;2.00;0.97;;;;;;;18.36;57.61;99862.69;4935484;29;20567;-72
2024/01/01 09:54:43;;;;;;;2.20;1.20;;;;;;;18.36;57.52;99859.84;4921352;29;20524;-72
2024/01/01 09:57:08;;;;;;;1.80;1.00;;;;;;;18.36;57.86;99868.41;4935386;28;20832;-72
2024/01/01 09:59:37;;;;;;;2.63;0.87;;;;;;;18.35;57.84;99863.91;4936776;29;20443;-72
2024/01/01 10:02:12;;;;;;;2.20;1.10;;;;;;;18.35;57.52;99863.91;4937052;29;20210;-72
2024/01/01 10:04:37;;;;;;;1.60;0.70;;;;;;;18.36;57.88;99859.84;4950523;28;20601;-72
2024/01/01 10:07:03;;;;;;;2.10;1.03;;;;;;;18.36;57.97;99864.75;4934752;29;20460;-72
2024/01/01 10:09:28;;;;;;;2.40;1.13;;;;;;;18.37;57.72;99858.63;4943773;28;20777;-72
2024/01/01 10:12:15;;;;;;;3.57;1.43;;;;;;;18.36;57.66;99859.03;4937572;28;20677;-73
2024/01/01 10:14:46;;;;;;;2.63;1.07;;;;;;;18.36;57.86;99854.13;4938083;29;20235;-72
2024/01/01 10:17:12;;;;;;;6.90;1.17;;;;;;;18.36;57.88;99853.31;4926289;29;20570;-72
2024/01/01 10:19:48;;;;;;;2.50;1.07;;;;;;;18.36;57.84;99853.31;4930342;29;20875;-72
2024/01/01 10:22:13;;;;;;;2.00;1.33;;;;;;;18.35;57.96;99854.50;4923314;28;20858;-72
2024/01/01 10:24:39;;;;;;;4.40;1.17;;;;;;;18.36;57.68;99865.56;4936177;29;20458;-74
2024/01/01 10:27:04;;;;;;;2.27;1.20;;;;;;;18.37;57.90;99867.19;4905380;29;20239;-72
2024/01/01 10:29:29;;;;;;;2.37;0.90;;;;;;;18.39;57.50;99869.66;4936942;29;20199;-72
2024/01/01 10:31:55;;;;;;;1.87;1.10;;;;;;;18.37;57.41;99872.91;4916199;29;20263;-72
2024/01/01 10:34:21;;;;;;;2.30;1.30;;;;;;;18.38;57.53;99865.16;4918609;29;20279;-72
2024/01/01 10:36:46;;;;;;;3.13;1.40;;;;;;;18.38;57.67;99871.72;4937236;28;20236;-72
2024/01/01 10:39:12;;;;;;;2.33;0.90;;;;;;;18.39;57.52;99864.78;4940590;28;20217;-72
2024/01/01 10:41:38;;;;;;;3.50;1.00;;;;;;;18.41;57.59;99868.06;4926768;29;20233;-72
2024/01/01 10:44:06;;;;;;;2.63;1.17;;;;;;;18.38;57.56;99857.44;4919251;29;20203;-72
2024/01/01 10:46:32;;;;;;;2.33;1.00;;;;;;;18.39;57.48;99856.22;4921365;29;20479;-72
2024/01/01 10:48:58;;;;;;;2.10;1.10;;;;;;;18.39;57.49;99859.06;4951130;28;20478;-72
2024/01/01 10:51:29;;;;;;;1.70;0.87;;;;;;;18.39;57.68;99864.78;4942757;28;20449;-72
2024/01/01 10:54:14;;;;;;;5.27;1.23;;;;;;;18.39;57.43;99856.22;4960461;28;20708;-73
2024/01/01 10:56:48;;;;;;;2.87;1.10;;;;;;;18.40;57.76;99863.56;4941023;28;20464;-72
2024/01/01 10:59:20;;;;;;;3.73;1.00;;;;;;;18.41;57.73;99861.53;4941880;28;20533;-74
2024/01/01 11:01:52;;;;;;;4.83;1.50;;;;;;;18.40;56.58;99857.03;4955545;28;20754;-73
2024/01/01 11:04:23;;;;;;;22.57;3.20;;;;;;;18.33;56.54;99872.06;4934980;28;20458;-73
2024/01/01 11:06:49;;;;;;;39.00;6.33;;;;;;;18.31;56.32;99857.31;4921269;29;20458;-74
2024/01/01 11:09:20;;;;;;;58.73;8.60;;;;;;;18.33;56.65;99854.94;4951986;28;20796;-73
2024/01/01 11:11:55;;;;;;;51.37;8.30;;;;;;;18.40;56.43;99854.16;4941698;28;20211;-73
2024/01/01 11:14:24;;;;;;;73.10;9.80;;;;;;;18.34;56.36;99856.56;4942703;28;20819;-74
2024/01/01 11:16:53;;;;;;;50.73;9.47;;;;;;;18.30;56.16;99852.81;4956362;28;20434;-73
2024/01/01 11:19:44;;;;;;;105.87;12.93;;;;;;;18.35;56.56;99868.81;4921818;29;20458;-72
2024/01/01 11:22:18;;;;;;;65.17;10.30;;;;;;;18.31;57.00;99865.88;4947039;29;20453;-72
2024/01/01 11:24:45;;;;;;;67.30;10.83;;;;;;;18.35;57.09;99863.09;4937006;29;20453;-72
2024/01/01 11:27:26;;;;;;;75.37;11.60;;;;;;;18.33;57.48;99876.94;4937449;29;20446;-73
2024/01/01 11:29:51;;;;;;;66.63;9.73;;;;;;;18.31;57.53;99873.63;4914886;29;21038;-73